sensor_id;sensor_type;location;lat;lon;timestamp;P1;durP1;ratioP1;P2;durP2;ratioP2
10461;SDS011;5278;42.656;23.374;2022-12-20T00:00:03;8.70;;;6.13;;
10461;SDS011;5278;42.656;23.374;2022-12-20T00:02:33;11.27;;;6.57;;
10461;SDS011;5278;42.656;23.374;2022-12-20T00:05:00;11.23;;;6.70;;
10461;SDS011;5278;42.656;23.374;2022-12-20T00:07:27;8.53;;;6.27;;
10461;SDS011;5278;42.656;23.374;2022-12-20T00:09:54;11.93;;;6.23;;
10461;SDS011;5278;42.656;23.374;2022-12-20T00:12:22;11.23;;;6.50;;
10461;SDS011;5278;42.656;23.374;2022-12-20T00:14:49;9.50;;;6.63;;
10461;SDS011;5278;42.656;23.374;2022-12-20T00:17:15;11.93;;;6.30;;
10461;SDS011;5278;42.656;23.374;2022-12-20T00:19:45;10.33;;;7.00;;
10461;SDS011;5278;42.656;23.374;2022-12-20T00:22:13;14.13;;;7.47;;
10461;SDS011;5278;42.656;23.374;2022-12-20T00:24:41;12.10;;;7.30;;
10461;SDS011;5278;42.656;23.374;2022-12-20T00:27:08;9.67;;;6.30;;
10461;SDS011;5278;42.656;23.374;2022-12-20T00:29:35;11.33;;;6.73;;
10461;SDS011;5278;42.656;23.374;2022-12-20T00:32:02;11.03;;;6.40;;
10461;SDS011;5278;42.656;23.374;2022-12-20T00:34:29;9.37;;;6.13;;
10461;SDS011;5278;42.656;23.374;2022-12-20T00:36:58;9.70;;;6.03;;
10461;SDS011;5278;42.656;23.374;2022-12-20T00:39:25;10.70;;;6.87;;
10461;SDS011;5278;42.656;23.374;2022-12-20T00:41:52;10.40;;;6.00;;
10461;SDS011;5278;42.656;23.374;2022-12-20T00:44:20;13.37;;;7.50;;
10461;SDS011;5278;42.656;23.374;2022-12-20T00:46:47;9.97;;;6.57;;
10461;SDS011;5278;42.656;23.374;2022-12-20T00:49:13;12.30;;;5.97;;
10461;SDS011;5278;42.656;23.374;2022-12-20T00:51:40;10.67;;;6.17;;
10461;SDS011;5278;42.656;23.374;2022-12-20T00:54:09;10.50;;;5.63;;
10461;SDS011;5278;42.656;23.374;2022-12-20T00:56:37;8.27;;;5.37;;
10461;SDS011;5278;42.656;23.374;2022-12-20T00:59:04;12.67;;;6.37;;
10461;SDS011;5278;42.656;23.374;2022-12-20T01:01:31;12.13;;;6.43;;
10461;SDS011;5278;42.656;23.374;2022-12-20T01:04:00;9.60;;;5.77;;
10461;SDS011;5278;42.656;23.374;2022-12-20T01:06:30;14.07;;;7.57;;
10461;SDS011;5278;42.656;23.374;2022-12-20T01:08:57;10.07;;;6.30;;
10461;SDS011;5278;42.656;23.374;2022-12-20T01:11:27;11.73;;;6.40;;
10461;SDS011;5278;42.656;23.374;2022-12-20T01:13:56;9.50;;;5.33;;
10461;SDS011;5278;42.656;23.374;2022-12-20T01:16:25;13.93;;;6.87;;
10461;SDS011;5278;42.656;23.374;2022-12-20T01:18:53;10.50;;;5.87;;
10461;SDS011;5278;42.656;23.374;2022-12-20T01:21:21;10.40;;;5.90;;
10461;SDS011;5278;42.656;23.374;2022-12-20T01:23:51;12.33;;;6.47;;
10461;SDS011;5278;42.656;23.374;2022-12-20T01:26:19;9.00;;;5.93;;
10461;SDS011;5278;42.656;23.374;2022-12-20T01:28:51;17.67;;;6.30;;
10461;SDS011;5278;42.656;23.374;2022-12-20T01:31:19;8.63;;;5.73;;
10461;SDS011;5278;42.656;23.374;2022-12-20T01:33:48;8.77;;;5.33;;
10461;SDS011;5278;42.656;23.374;2022-12-20T01:36:17;10.27;;;6.20;;
10461;SDS011;5278;42.656;23.374;2022-12-20T01:38:45;11.60;;;6.40;;
10461;SDS011;5278;42.656;23.374;2022-12-20T01:41:13;9.10;;;5.60;;
10461;SDS011;5278;42.656;23.374;2022-12-20T01:43:47;10.57;;;5.27;;
10461;SDS011;5278;42.656;23.374;2022-12-20T01:46:18;10.57;;;5.70;;
10461;SDS011;5278;42.656;23.374;2022-12-20T01:48:47;9.60;;;5.97;;
10461;SDS011;5278;42.656;23.374;2022-12-20T01:51:18;11.03;;;6.27;;
10461;SDS011;5278;42.656;23.374;2022-12-20T01:53:45;8.10;;;5.33;;
10461;SDS011;5278;42.656;23.374;2022-12-20T01:56:14;8.87;;;5.93;;
10461;SDS011;5278;42.656;23.374;2022-12-20T01:58:41;11.43;;;6.57;;
10461;SDS011;5278;42.656;23.374;2022-12-20T02:01:13;9.73;;;5.53;;
10461;SDS011;5278;42.656;23.374;2022-12-20T02:03:40;7.73;;;5.40;;
10461;SDS011;5278;42.656;23.374;2022-12-20T02:06:12;7.87;;;5.20;;
10461;SDS011;5278;42.656;23.374;2022-12-20T02:08:43;10.57;;;6.33;;
10461;SDS011;5278;42.656;23.374;2022-12-20T02:11:16;12.63;;;6.60;;
10461;SDS011;5278;42.656;23.374;2022-12-20T02:14:04;11.40;;;6.37;;
10461;SDS011;5278;42.656;23.374;2022-12-20T02:16:44;9.53;;;5.77;;
10461;SDS011;5278;42.656;23.374;2022-12-20T02:19:26;11.37;;;6.40;;
10461;SDS011;5278;42.656;23.374;2022-12-20T02:22:16;8.73;;;6.20;;
10461;SDS011;5278;42.656;23.374;2022-12-20T02:27:52;9.93;;;6.20;;
10461;SDS011;5278;42.656;23.374;2022-12-20T02:30:27;10.83;;;5.90;;
10461;SDS011;5278;42.656;23.374;2022-12-20T02:32:59;8.70;;;5.90;;
10461;SDS011;5278;42.656;23.374;2022-12-20T02:35:30;11.30;;;6.03;;
10461;SDS011;5278;42.656;23.374;2022-12-20T02:38:00;12.37;;;6.50;;
10461;SDS011;5278;42.656;23.374;2022-12-20T02:40:31;8.17;;;5.70;;
10461;SDS011;5278;42.656;23.374;2022-12-20T02:43:06;9.43;;;5.60;;
10461;SDS011;5278;42.656;23.374;2022-12-20T02:45:58;10.53;;;6.00;;
10461;SDS011;5278;42.656;23.374;2022-12-20T02:48:26;10.50;;;7.20;;
10461;SDS011;5278;42.656;23.374;2022-12-20T02:50:57;12.87;;;6.70;;
10461;SDS011;5278;42.656;23.374;2022-12-20T02:53:28;7.87;;;5.40;;
10461;SDS011;5278;42.656;23.374;2022-12-20T02:55:56;12.27;;;6.90;;
10461;SDS011;5278;42.656;23.374;2022-12-20T02:58:28;11.77;;;7.10;;
10461;SDS011;5278;42.656;23.374;2022-12-20T03:01:02;10.13;;;6.33;;
10461;SDS011;5278;42.656;23.374;2022-12-20T03:03:34;12.23;;;6.80;;
10461;SDS011;5278;42.656;23.374;2022-12-20T03:06:02;11.77;;;7.13;;
10461;SDS011;5278;42.656;23.374;2022-12-20T03:08:29;9.20;;;6.77;;
10461;SDS011;5278;42.656;23.374;2022-12-20T03:10:56;12.43;;;7.60;;
10461;SDS011;5278;42.656;23.374;2022-12-20T03:13:24;12.23;;;7.63;;
10461;SDS011;5278;42.656;23.374;2022-12-20T03:15:51;12.00;;;8.13;;
10461;SDS011;5278;42.656;23.374;2022-12-20T03:18:20;12.80;;;7.40;;
10461;SDS011;5278;42.656;23.374;2022-12-20T03:20:47;14.73;;;8.07;;
10461;SDS011;5278;42.656;23.374;2022-12-20T03:23:16;12.13;;;7.53;;
10461;SDS011;5278;42.656;23.374;2022-12-20T03:25:45;11.60;;;7.07;;
10461;SDS011;5278;42.656;23.374;2022-12-20T03:28:13;13.60;;;8.03;;
10461;SDS011;5278;42.656;23.374;2022-12-20T03:30:40;12.77;;;7.80;;
10461;SDS011;5278;42.656;23.374;2022-12-20T03:33:07;11.63;;;7.50;;
10461;SDS011;5278;42.656;23.374;2022-12-20T03:35:36;12.27;;;7.40;;
10461;SDS011;5278;42.656;23.374;2022-12-20T03:38:03;13.83;;;7.63;;
10461;SDS011;5278;42.656;23.374;2022-12-20T03:40:30;12.07;;;7.90;;
10461;SDS011;5278;42.656;23.374;2022-12-20T03:42:57;16.00;;;7.70;;
10461;SDS011;5278;42.656;23.374;2022-12-20T03:45:25;12.97;;;8.20;;
10461;SDS011;5278;42.656;23.374;2022-12-20T03:47:52;13.30;;;8.57;;
10461;SDS011;5278;42.656;23.374;2022-12-20T03:50:19;12.00;;;8.33;;
10461;SDS011;5278;42.656;23.374;2022-12-20T03:52:47;12.13;;;7.33;;
10461;SDS011;5278;42.656;23.374;2022-12-20T03:55:14;14.17;;;7.90;;
10461;SDS011;5278;42.656;23.374;2022-12-20T03:57:40;17.37;;;8.73;;
10461;SDS011;5278;42.656;23.374;2022-12-20T04:00:08;15.77;;;8.33;;
10461;SDS011;5278;42.656;23.374;2022-12-20T04:02:36;14.30;;;8.10;;
10461;SDS011;5278;42.656;23.374;2022-12-20T04:05:03;12.67;;;8.63;;
10461;SDS011;5278;42.656;23.374;2022-12-20T04:07:31;12.87;;;7.97;;
10461;SDS011;5278;42.656;23.374;2022-12-20T04:09:59;14.03;;;8.90;;
10461;SDS011;5278;42.656;23.374;2022-12-20T04:12:26;15.90;;;9.13;;
10461;SDS011;5278;42.656;23.374;2022-12-20T04:14:53;15.20;;;8.67;;
10461;SDS011;5278;42.656;23.374;2022-12-20T04:17:20;12.90;;;7.63;;
10461;SDS011;5278;42.656;23.374;2022-12-20T04:19:47;13.73;;;8.73;;
10461;SDS011;5278;42.656;23.374;2022-12-20T04:22:14;12.03;;;7.80;;
10461;SDS011;5278;42.656;23.374;2022-12-20T04:24:41;10.60;;;7.70;;
10461;SDS011;5278;42.656;23.374;2022-12-20T04:27:09;12.63;;;8.27;;
10461;SDS011;5278;42.656;23.374;2022-12-20T04:29:36;13.97;;;8.10;;
10461;SDS011;5278;42.656;23.374;2022-12-20T04:32:03;16.13;;;8.27;;
10461;SDS011;5278;42.656;23.374;2022-12-20T04:34:30;12.50;;;8.10;;
10461;SDS011;5278;42.656;23.374;2022-12-20T04:36:57;13.67;;;8.83;;
10461;SDS011;5278;42.656;23.374;2022-12-20T04:39:24;14.27;;;9.00;;
10461;SDS011;5278;42.656;23.374;2022-12-20T04:41:52;12.90;;;8.43;;
10461;SDS011;5278;42.656;23.374;2022-12-20T04:44:20;14.23;;;8.67;;
10461;SDS011;5278;42.656;23.374;2022-12-20T04:46:47;12.77;;;8.43;;
10461;SDS011;5278;42.656;23.374;2022-12-20T04:49:14;12.83;;;8.03;;
10461;SDS011;5278;42.656;23.374;2022-12-20T04:51:41;13.77;;;8.00;;
10461;SDS011;5278;42.656;23.374;2022-12-20T04:54:08;17.33;;;8.93;;
10461;SDS011;5278;42.656;23.374;2022-12-20T04:56:34;15.53;;;10.63;;
10461;SDS011;5278;42.656;23.374;2022-12-20T04:59:01;14.00;;;9.23;;
10461;SDS011;5278;42.656;23.374;2022-12-20T05:01:31;10.57;;;7.70;;
10461;SDS011;5278;42.656;23.374;2022-12-20T05:03:59;13.73;;;9.20;;
10461;SDS011;5278;42.656;23.374;2022-12-20T05:06:26;16.23;;;8.47;;
10461;SDS011;5278;42.656;23.374;2022-12-20T05:08:53;13.00;;;8.93;;
10461;SDS011;5278;42.656;23.374;2022-12-20T05:11:21;17.03;;;9.13;;
10461;SDS011;5278;42.656;23.374;2022-12-20T05:13:48;14.70;;;8.80;;
10461;SDS011;5278;42.656;23.374;2022-12-20T05:16:15;14.33;;;8.97;;
10461;SDS011;5278;42.656;23.374;2022-12-20T05:18:43;22.23;;;9.57;;
10461;SDS011;5278;42.656;23.374;2022-12-20T05:21:10;16.03;;;9.13;;
10461;SDS011;5278;42.656;23.374;2022-12-20T05:23:54;15.00;;;9.50;;
10461;SDS011;5278;42.656;23.374;2022-12-20T05:26:39;18.20;;;8.17;;
10461;SDS011;5278;42.656;23.374;2022-12-20T05:29:06;16.43;;;9.20;;
10461;SDS011;5278;42.656;23.374;2022-12-20T05:31:33;13.93;;;8.63;;
10461;SDS011;5278;42.656;23.374;2022-12-20T05:34:01;13.63;;;9.10;;
10461;SDS011;5278;42.656;23.374;2022-12-20T05:36:28;14.70;;;9.07;;
10461;SDS011;5278;42.656;23.374;2022-12-20T05:38:56;12.87;;;8.80;;
10461;SDS011;5278;42.656;23.374;2022-12-20T05:41:23;16.43;;;9.43;;
10461;SDS011;5278;42.656;23.374;2022-12-20T05:43:49;12.67;;;9.00;;
10461;SDS011;5278;42.656;23.374;2022-12-20T05:46:16;17.13;;;9.10;;
10461;SDS011;5278;42.656;23.374;2022-12-20T05:48:45;15.53;;;10.33;;
10461;SDS011;5278;42.656;23.374;2022-12-20T05:51:14;15.47;;;9.07;;
10461;SDS011;5278;42.656;23.374;2022-12-20T05:53:41;15.00;;;8.70;;
10461;SDS011;5278;42.656;23.374;2022-12-20T05:56:08;26.70;;;10.97;;
10461;SDS011;5278;42.656;23.374;2022-12-20T05:58:37;18.17;;;10.10;;
10461;SDS011;5278;42.656;23.374;2022-12-20T06:01:06;18.33;;;10.17;;
10461;SDS011;5278;42.656;23.374;2022-12-20T06:03:34;18.03;;;10.17;;
10461;SDS011;5278;42.656;23.374;2022-12-20T06:06:01;15.87;;;9.60;;
10461;SDS011;5278;42.656;23.374;2022-12-20T06:08:31;25.10;;;13.60;;
10461;SDS011;5278;42.656;23.374;2022-12-20T06:10:58;18.23;;;10.17;;
10461;SDS011;5278;42.656;23.374;2022-12-20T06:13:26;15.73;;;9.67;;
10461;SDS011;5278;42.656;23.374;2022-12-20T06:15:53;17.33;;;10.23;;
10461;SDS011;5278;42.656;23.374;2022-12-20T06:18:20;16.40;;;8.50;;
10461;SDS011;5278;42.656;23.374;2022-12-20T06:20:48;12.10;;;8.43;;
10461;SDS011;5278;42.656;23.374;2022-12-20T06:23:16;15.60;;;9.57;;
10461;SDS011;5278;42.656;23.374;2022-12-20T06:25:45;10.87;;;7.60;;
10461;SDS011;5278;42.656;23.374;2022-12-20T06:28:12;12.00;;;7.20;;
10461;SDS011;5278;42.656;23.374;2022-12-20T06:30:50;11.90;;;7.17;;
10461;SDS011;5278;42.656;23.374;2022-12-20T06:33:18;11.37;;;7.60;;
10461;SDS011;5278;42.656;23.374;2022-12-20T06:35:45;9.40;;;6.80;;
10461;SDS011;5278;42.656;23.374;2022-12-20T06:38:12;9.70;;;6.70;;
10461;SDS011;5278;42.656;23.374;2022-12-20T06:40:39;12.00;;;7.80;;
10461;SDS011;5278;42.656;23.374;2022-12-20T06:43:08;12.37;;;7.90;;
10461;SDS011;5278;42.656;23.374;2022-12-20T06:45:35;14.27;;;8.90;;
10461;SDS011;5278;42.656;23.374;2022-12-20T06:48:03;11.43;;;7.30;;
10461;SDS011;5278;42.656;23.374;2022-12-20T06:50:31;10.63;;;7.60;;
10461;SDS011;5278;42.656;23.374;2022-12-20T06:52:58;11.60;;;7.23;;
10461;SDS011;5278;42.656;23.374;2022-12-20T06:55:25;16.03;;;7.77;;
10461;SDS011;5278;42.656;23.374;2022-12-20T06:57:52;15.37;;;8.37;;
10461;SDS011;5278;42.656;23.374;2022-12-20T07:00:22;13.50;;;8.13;;
10461;SDS011;5278;42.656;23.374;2022-12-20T07:02:49;12.93;;;8.17;;
10461;SDS011;5278;42.656;23.374;2022-12-20T07:05:16;13.40;;;7.80;;
10461;SDS011;5278;42.656;23.374;2022-12-20T07:07:43;13.50;;;7.40;;
10461;SDS011;5278;42.656;23.374;2022-12-20T07:10:10;13.67;;;7.67;;
10461;SDS011;5278;42.656;23.374;2022-12-20T07:12:38;14.10;;;8.37;;
10461;SDS011;5278;42.656;23.374;2022-12-20T07:15:07;15.30;;;8.20;;
10461;SDS011;5278;42.656;23.374;2022-12-20T07:17:36;13.60;;;7.83;;
10461;SDS011;5278;42.656;23.374;2022-12-20T07:20:03;12.53;;;9.13;;
10461;SDS011;5278;42.656;23.374;2022-12-20T07:22:32;14.33;;;9.40;;
10461;SDS011;5278;42.656;23.374;2022-12-20T07:24:59;15.13;;;9.50;;
10461;SDS011;5278;42.656;23.374;2022-12-20T07:27:26;17.53;;;10.23;;
10461;SDS011;5278;42.656;23.374;2022-12-20T07:29:53;14.00;;;9.37;;
10461;SDS011;5278;42.656;23.374;2022-12-20T07:32:20;14.60;;;8.83;;
10461;SDS011;5278;42.656;23.374;2022-12-20T07:34:49;11.47;;;7.30;;
10461;SDS011;5278;42.656;23.374;2022-12-20T07:37:16;11.97;;;7.20;;
10461;SDS011;5278;42.656;23.374;2022-12-20T07:39:43;10.40;;;7.20;;
10461;SDS011;5278;42.656;23.374;2022-12-20T07:42:09;10.43;;;7.93;;
10461;SDS011;5278;42.656;23.374;2022-12-20T07:44:36;16.07;;;6.90;;
10461;SDS011;5278;42.656;23.374;2022-12-20T07:47:03;13.03;;;8.33;;
10461;SDS011;5278;42.656;23.374;2022-12-20T07:49:30;14.07;;;7.53;;
10461;SDS011;5278;42.656;23.374;2022-12-20T07:52:00;11.43;;;7.67;;
10461;SDS011;5278;42.656;23.374;2022-12-20T07:54:30;12.23;;;6.60;;
10461;SDS011;5278;42.656;23.374;2022-12-20T07:57:00;9.20;;;7.83;;
10461;SDS011;5278;42.656;23.374;2022-12-20T07:59:41;12.53;;;8.43;;
10461;SDS011;5278;42.656;23.374;2022-12-20T08:02:12;16.47;;;9.27;;
10461;SDS011;5278;42.656;23.374;2022-12-20T08:04:43;13.47;;;9.37;;
10461;SDS011;5278;42.656;23.374;2022-12-20T08:07:11;13.60;;;7.97;;
10461;SDS011;5278;42.656;23.374;2022-12-20T08:09:39;12.13;;;7.27;;
10461;SDS011;5278;42.656;23.374;2022-12-20T08:12:09;11.20;;;7.00;;
10461;SDS011;5278;42.656;23.374;2022-12-20T08:14:38;9.47;;;6.13;;
10461;SDS011;5278;42.656;23.374;2022-12-20T08:17:05;11.53;;;7.03;;
10461;SDS011;5278;42.656;23.374;2022-12-20T08:19:32;12.10;;;6.10;;
10461;SDS011;5278;42.656;23.374;2022-12-20T08:21:58;9.73;;;6.70;;
10461;SDS011;5278;42.656;23.374;2022-12-20T08:24:27;16.60;;;9.10;;
10461;SDS011;5278;42.656;23.374;2022-12-20T08:26:54;10.57;;;7.00;;
10461;SDS011;5278;42.656;23.374;2022-12-20T08:29:22;12.20;;;7.70;;
10461;SDS011;5278;42.656;23.374;2022-12-20T08:31:49;9.63;;;6.87;;
10461;SDS011;5278;42.656;23.374;2022-12-20T08:34:16;17.20;;;11.03;;
10461;SDS011;5278;42.656;23.374;2022-12-20T08:36:43;10.17;;;7.17;;
10461;SDS011;5278;42.656;23.374;2022-12-20T08:39:10;13.93;;;7.93;;
10461;SDS011;5278;42.656;23.374;2022-12-20T08:41:39;17.07;;;8.57;;
10461;SDS011;5278;42.656;23.374;2022-12-20T08:44:06;12.93;;;7.23;;
10461;SDS011;5278;42.656;23.374;2022-12-20T08:46:33;9.53;;;6.17;;
10461;SDS011;5278;42.656;23.374;2022-12-20T08:49:01;10.43;;;7.23;;
10461;SDS011;5278;42.656;23.374;2022-12-20T08:51:28;9.77;;;6.87;;
10461;SDS011;5278;42.656;23.374;2022-12-20T08:53:56;8.50;;;6.43;;
10461;SDS011;5278;42.656;23.374;2022-12-20T08:56:23;7.07;;;5.73;;
10461;SDS011;5278;42.656;23.374;2022-12-20T08:58:52;11.07;;;7.07;;
10461;SDS011;5278;42.656;23.374;2022-12-20T09:01:19;9.93;;;7.07;;
10461;SDS011;5278;42.656;23.374;2022-12-20T09:03:47;8.10;;;6.07;;
10461;SDS011;5278;42.656;23.374;2022-12-20T09:06:15;14.23;;;8.40;;
10461;SDS011;5278;42.656;23.374;2022-12-20T09:08:44;6.93;;;5.77;;
10461;SDS011;5278;42.656;23.374;2022-12-20T09:11:15;8.33;;;6.27;;
10461;SDS011;5278;42.656;23.374;2022-12-20T09:13:43;9.50;;;6.87;;
10461;SDS011;5278;42.656;23.374;2022-12-20T09:16:13;9.67;;;5.67;;
10461;SDS011;5278;42.656;23.374;2022-12-20T09:18:42;8.63;;;5.73;;
10461;SDS011;5278;42.656;23.374;2022-12-20T09:21:10;8.17;;;5.93;;
10461;SDS011;5278;42.656;23.374;2022-12-20T09:23:40;10.90;;;7.43;;
10461;SDS011;5278;42.656;23.374;2022-12-20T09:26:09;6.83;;;5.57;;
10461;SDS011;5278;42.656;23.374;2022-12-20T09:28:37;10.33;;;7.50;;
10461;SDS011;5278;42.656;23.374;2022-12-20T09:31:05;8.50;;;6.13;;
10461;SDS011;5278;42.656;23.374;2022-12-20T09:33:35;7.33;;;5.47;;
10461;SDS011;5278;42.656;23.374;2022-12-20T09:36:03;9.77;;;6.80;;
10461;SDS011;5278;42.656;23.374;2022-12-20T09:38:30;8.33;;;5.70;;
10461;SDS011;5278;42.656;23.374;2022-12-20T09:40:58;9.50;;;6.00;;
10461;SDS011;5278;42.656;23.374;2022-12-20T09:43:28;9.50;;;5.93;;
10461;SDS011;5278;42.656;23.374;2022-12-20T09:45:59;8.53;;;5.87;;
10461;SDS011;5278;42.656;23.374;2022-12-20T09:48:30;8.27;;;6.00;;
10461;SDS011;5278;42.656;23.374;2022-12-20T09:51:09;8.33;;;6.23;;
10461;SDS011;5278;42.656;23.374;2022-12-20T09:53:50;8.20;;;6.23;;
10461;SDS011;5278;42.656;23.374;2022-12-20T09:56:27;10.33;;;7.37;;
10461;SDS011;5278;42.656;23.374;2022-12-20T09:58:59;10.20;;;6.77;;
10461;SDS011;5278;42.656;23.374;2022-12-20T10:01:29;7.80;;;5.80;;
10461;SDS011;5278;42.656;23.374;2022-12-20T10:03:58;8.20;;;6.03;;
10461;SDS011;5278;42.656;23.374;2022-12-20T10:06:34;8.80;;;6.10;;
10461;SDS011;5278;42.656;23.374;2022-12-20T10:09:10;11.67;;;6.53;;
10461;SDS011;5278;42.656;23.374;2022-12-20T10:11:52;13.30;;;6.33;;
10461;SDS011;5278;42.656;23.374;2022-12-20T10:14:36;13.07;;;10.10;;
10461;SDS011;5278;42.656;23.374;2022-12-20T10:17:22;10.97;;;7.00;;
10461;SDS011;5278;42.656;23.374;2022-12-20T10:22:50;9.27;;;6.60;;
10461;SDS011;5278;42.656;23.374;2022-12-20T10:25:22;9.23;;;6.40;;
10461;SDS011;5278;42.656;23.374;2022-12-20T10:27:51;10.30;;;7.20;;
10461;SDS011;5278;42.656;23.374;2022-12-20T10:30:23;10.83;;;6.20;;
10461;SDS011;5278;42.656;23.374;2022-12-20T10:32:52;9.53;;;6.60;;
10461;SDS011;5278;42.656;23.374;2022-12-20T10:35:23;12.47;;;8.40;;
10461;SDS011;5278;42.656;23.374;2022-12-20T10:38:03;10.27;;;6.40;;
10461;SDS011;5278;42.656;23.374;2022-12-20T10:40:32;7.63;;;5.90;;
10461;SDS011;5278;42.656;23.374;2022-12-20T10:43:01;9.10;;;6.20;;
10461;SDS011;5278;42.656;23.374;2022-12-20T10:45:34;8.57;;;5.73;;
10461;SDS011;5278;42.656;23.374;2022-12-20T10:48:04;11.17;;;6.93;;
10461;SDS011;5278;42.656;23.374;2022-12-20T10:50:53;17.33;;;9.83;;
10461;SDS011;5278;42.656;23.374;2022-12-20T10:53:25;10.67;;;6.40;;
10461;SDS011;5278;42.656;23.374;2022-12-20T10:55:53;9.80;;;5.87;;
10461;SDS011;5278;42.656;23.374;2022-12-20T10:58:35;7.20;;;4.87;;
10461;SDS011;5278;42.656;23.374;2022-12-20T11:01:03;11.17;;;6.20;;
10461;SDS011;5278;42.656;23.374;2022-12-20T11:03:32;9.93;;;5.90;;
10461;SDS011;5278;42.656;23.374;2022-12-20T11:06:00;10.67;;;7.50;;
10461;SDS011;5278;42.656;23.374;2022-12-20T11:08:30;8.90;;;5.73;;
10461;SDS011;5278;42.656;23.374;2022-12-20T11:11:12;8.70;;;5.40;;
10461;SDS011;5278;42.656;23.374;2022-12-20T11:13:40;8.87;;;6.30;;
10461;SDS011;5278;42.656;23.374;2022-12-20T11:16:22;5.87;;;4.57;;
10461;SDS011;5278;42.656;23.374;2022-12-20T11:18:54;9.50;;;5.70;;
10461;SDS011;5278;42.656;23.374;2022-12-20T11:21:30;8.67;;;5.90;;
10461;SDS011;5278;42.656;23.374;2022-12-20T11:24:09;7.77;;;5.53;;
10461;SDS011;5278;42.656;23.374;2022-12-20T11:26:49;8.03;;;5.27;;
10461;SDS011;5278;42.656;23.374;2022-12-20T11:29:36;7.43;;;5.70;;
10461;SDS011;5278;42.656;23.374;2022-12-20T11:32:20;6.97;;;5.43;;
10461;SDS011;5278;42.656;23.374;2022-12-20T11:34:58;12.77;;;5.97;;
10461;SDS011;5278;42.656;23.374;2022-12-20T11:37:35;8.63;;;6.00;;
10461;SDS011;5278;42.656;23.374;2022-12-20T11:40:17;7.63;;;4.77;;
10461;SDS011;5278;42.656;23.374;2022-12-20T11:42:57;7.20;;;4.97;;
10461;SDS011;5278;42.656;23.374;2022-12-20T11:45:36;4.93;;;4.37;;
10461;SDS011;5278;42.656;23.374;2022-12-20T11:48:16;6.47;;;4.83;;
10461;SDS011;5278;42.656;23.374;2022-12-20T11:51:11;8.97;;;4.50;;
10461;SDS011;5278;42.656;23.374;2022-12-20T11:53:47;5.80;;;4.53;;
10461;SDS011;5278;42.656;23.374;2022-12-20T11:56:22;7.93;;;5.00;;
10461;SDS011;5278;42.656;23.374;2022-12-20T11:58:56;9.27;;;5.60;;
10461;SDS011;5278;42.656;23.374;2022-12-20T12:01:28;9.27;;;5.13;;
10461;SDS011;5278;42.656;23.374;2022-12-20T12:04:03;13.27;;;7.20;;
10461;SDS011;5278;42.656;23.374;2022-12-20T12:06:40;15.10;;;8.07;;
10461;SDS011;5278;42.656;23.374;2022-12-20T12:09:17;8.97;;;6.00;;
10461;SDS011;5278;42.656;23.374;2022-12-20T12:11:53;5.73;;;4.47;;
10461;SDS011;5278;42.656;23.374;2022-12-20T12:14:28;12.43;;;7.30;;
10461;SDS011;5278;42.656;23.374;2022-12-20T12:17:04;7.20;;;5.07;;
10461;SDS011;5278;42.656;23.374;2022-12-20T12:19:35;8.60;;;5.47;;
10461;SDS011;5278;42.656;23.374;2022-12-20T12:22:08;9.43;;;5.53;;
10461;SDS011;5278;42.656;23.374;2022-12-20T12:24:41;5.27;;;4.10;;
10461;SDS011;5278;42.656;23.374;2022-12-20T12:27:20;11.67;;;5.53;;
10461;SDS011;5278;42.656;23.374;2022-12-20T12:29:49;4.93;;;4.20;;
10461;SDS011;5278;42.656;23.374;2022-12-20T12:32:19;7.47;;;4.53;;
10461;SDS011;5278;42.656;23.374;2022-12-20T12:35:00;5.63;;;4.20;;
10461;SDS011;5278;42.656;23.374;2022-12-20T12:37:47;6.60;;;4.47;;
10461;SDS011;5278;42.656;23.374;2022-12-20T12:40:33;8.73;;;5.60;;
10461;SDS011;5278;42.656;23.374;2022-12-20T12:46:18;6.27;;;3.80;;
10461;SDS011;5278;42.656;23.374;2022-12-20T12:48:53;7.80;;;4.03;;
10461;SDS011;5278;42.656;23.374;2022-12-20T12:51:24;15.20;;;7.17;;
10461;SDS011;5278;42.656;23.374;2022-12-20T12:54:04;5.93;;;4.40;;
10461;SDS011;5278;42.656;23.374;2022-12-20T12:56:58;6.60;;;4.13;;
10461;SDS011;5278;42.656;23.374;2022-12-20T13:02:24;14.27;;;4.00;;
10461;SDS011;5278;42.656;23.374;2022-12-20T13:05:30;4.93;;;4.30;;
10461;SDS011;5278;42.656;23.374;2022-12-20T13:08:00;7.03;;;4.20;;
10461;SDS011;5278;42.656;23.374;2022-12-20T13:13:22;5.87;;;3.93;;
10461;SDS011;5278;42.656;23.374;2022-12-20T13:21:41;6.97;;;4.53;;
10461;SDS011;5278;42.656;23.374;2022-12-20T13:24:27;5.93;;;4.30;;
10461;SDS011;5278;42.656;23.374;2022-12-20T13:27:20;7.43;;;5.20;;
10461;SDS011;5278;42.656;23.374;2022-12-20T13:29:55;8.70;;;5.90;;
10461;SDS011;5278;42.656;23.374;2022-12-20T13:32:57;9.87;;;6.13;;
10461;SDS011;5278;42.656;23.374;2022-12-20T13:36:03;9.47;;;5.03;;
10461;SDS011;5278;42.656;23.374;2022-12-20T13:41:29;6.30;;;4.73;;
10461;SDS011;5278;42.656;23.374;2022-12-20T13:44:01;8.97;;;5.63;;
10461;SDS011;5278;42.656;23.374;2022-12-20T13:46:46;11.37;;;6.17;;
10461;SDS011;5278;42.656;23.374;2022-12-20T13:49:18;5.83;;;4.30;;
10461;SDS011;5278;42.656;23.374;2022-12-20T13:54:46;6.67;;;4.37;;
10461;SDS011;5278;42.656;23.374;2022-12-20T13:57:15;6.27;;;4.63;;
10461;SDS011;5278;42.656;23.374;2022-12-20T13:59:45;4.97;;;4.17;;
10461;SDS011;5278;42.656;23.374;2022-12-20T14:02:17;5.53;;;4.07;;
10461;SDS011;5278;42.656;23.374;2022-12-20T14:04:51;9.30;;;4.43;;
10461;SDS011;5278;42.656;23.374;2022-12-20T14:07:23;6.60;;;4.43;;
10461;SDS011;5278;42.656;23.374;2022-12-20T14:09:57;6.67;;;4.03;;
10461;SDS011;5278;42.656;23.374;2022-12-20T14:12:26;7.40;;;4.70;;
10461;SDS011;5278;42.656;23.374;2022-12-20T14:14:55;4.83;;;4.00;;
10461;SDS011;5278;42.656;23.374;2022-12-20T14:17:23;6.30;;;4.27;;
10461;SDS011;5278;42.656;23.374;2022-12-20T14:20:02;10.00;;;5.73;;
10461;SDS011;5278;42.656;23.374;2022-12-20T14:22:39;26.77;;;14.03;;
10461;SDS011;5278;42.656;23.374;2022-12-20T14:25:15;7.83;;;4.67;;
10461;SDS011;5278;42.656;23.374;2022-12-20T14:27:48;11.53;;;7.07;;
10461;SDS011;5278;42.656;23.374;2022-12-20T14:30:26;12.37;;;7.50;;
10461;SDS011;5278;42.656;23.374;2022-12-20T14:32:56;17.93;;;11.67;;
10461;SDS011;5278;42.656;23.374;2022-12-20T14:35:23;10.60;;;7.17;;
10461;SDS011;5278;42.656;23.374;2022-12-20T14:37:52;13.03;;;6.47;;
10461;SDS011;5278;42.656;23.374;2022-12-20T14:40:23;9.97;;;5.27;;
10461;SDS011;5278;42.656;23.374;2022-12-20T14:42:50;7.90;;;5.87;;
10461;SDS011;5278;42.656;23.374;2022-12-20T14:45:21;10.00;;;6.97;;
10461;SDS011;5278;42.656;23.374;2022-12-20T14:47:54;11.57;;;6.30;;
10461;SDS011;5278;42.656;23.374;2022-12-20T14:50:26;13.83;;;6.83;;
10461;SDS011;5278;42.656;23.374;2022-12-20T14:52:55;11.57;;;6.67;;
10461;SDS011;5278;42.656;23.374;2022-12-20T14:55:26;11.07;;;7.17;;
10461;SDS011;5278;42.656;23.374;2022-12-20T14:57:58;11.90;;;7.57;;
10461;SDS011;5278;42.656;23.374;2022-12-20T15:00:26;8.23;;;5.10;;
10461;SDS011;5278;42.656;23.374;2022-12-20T15:05:46;12.90;;;7.97;;
10461;SDS011;5278;42.656;23.374;2022-12-20T15:08:16;11.43;;;6.53;;
10461;SDS011;5278;42.656;23.374;2022-12-20T15:10:55;10.27;;;6.20;;
10461;SDS011;5278;42.656;23.374;2022-12-20T15:13:29;8.23;;;5.40;;
10461;SDS011;5278;42.656;23.374;2022-12-20T15:15:58;10.50;;;6.03;;
10461;SDS011;5278;42.656;23.374;2022-12-20T15:18:28;10.77;;;6.47;;
10461;SDS011;5278;42.656;23.374;2022-12-20T15:21:00;11.93;;;7.03;;
10461;SDS011;5278;42.656;23.374;2022-12-20T15:23:30;12.53;;;6.57;;
10461;SDS011;5278;42.656;23.374;2022-12-20T15:25:59;32.43;;;15.73;;
10461;SDS011;5278;42.656;23.374;2022-12-20T15:28:27;36.97;;;19.50;;